Lodiburg, Kentucky
Current Conditions -  °F | °C
As of 7:58 PM on Sunday 21 Dec 2014 (Local Time) from KFTK Reporting Station
Clear Clear  
Wind Chill: 29°   Ceiling: Unl
Heat Index: 34°   Visibility: 10mi
Dew Point: 28°   Wind: 6mph
Humidity: 79%   Direction: 50°NE
Pressure: 30.09"   Gusts: NA
Location:  37.879°N, 86.3348°W
Report Text: KFTK 220158Z AUTO 05005KT 10SM CLR 01/M02 A3009 RMK AO2 SLP200 T00101023
Loading
Personal Weather Stations






























Interactive Weather Map New forecast layout! Learn more

10-Day Weather Forecast

Advertisements
Track Severe Weather on mobile